Morehouse, MO (63868)

7:33 AM CDT on March 25, 2017 (GMT -0500)
Sikeston Ridge | | Change Station

Elev 326 ft 36.89 °N, 89.60 °W | Updated 8 minutes ago

Rain
Rain
55.7 °F
Feels Like 55.7 °F
N
0.0
Wind Variable Wind from West
Gusts 0.0 mph

Today
High -- | Low -- °F
--% Chance of Precip.
Yesterday
High -- | Low -- °F
Precip. -- in
Pressure 29.92 in
Visibility 7.0 miles
Clouds Mostly Cloudy 8000 ft
Overcast 10000 ft
Dew Point 30 °F
Humidity 38%
Rainfall 0.00 in
Snow Depth Not available.
6:54 AM 7:15 PM
Waning Crescent, 8% visible
METAR KCGI 251153Z 14014KT 7SM -RA BKN080 OVC100 13/11 A2992 RMK AO2 SLP130 P0004 60018 70018 T01280111 10189 20128 58005
Pressure 29.92 in
Visibility 7.0 miles
Clouds Mostly Cloudy 8000 ft
Overcast 10000 ft
Dew Point 30 °F
Humidity 38%
Rainfall 0.00 in
Snow Depth Not available.
6:54 AM 7:15 PM
Waning Crescent, 8% visible
METAR KCGI 251153Z 14014KT 7SM -RA BKN080 OVC100 13/11 A2992 RMK AO2 SLP130 P0004 60018 70018 T01280111 10189 20128 58005

Get Severe Weather Alerts

Thanks for signing up!

Be on the lookout for a verification email in your inbox.

You'll start receiving the daily forecast at 8 AM.

×

10-Day Weather Forecast

Almanac

Astronomy

Mar. 25, 2017 Rise Set
Actual Time
Civil Twilight
Nautical Twilight
Astronomical Twilight
Moon
Length of Visible Light
Length of Day
Tomorrow will be .
, % of the Moon is Illuminated

Today's Extremes

State Highs State Lows

Community

WunderPhotos

Upload Photos

1,962,540 photos uploaded!

WunderBlog® & News

Nearby

Air Quality

  Air Quality AQ Index Pollutant
Not available.

Snow Depth

Station Depth Elevation

Earthquake Activity

City Distance Mag. Time & Date
Minimum magnitude displayed is 2.5.

Earthquake Activity

City Distance Mag. Time & Date
Minimum magnitude displayed is 2.5.

Coastal Water Temperatures

Place Temperature

Stations

Nearby Weather Stations

Station Location Temp. Windchill Dew Point Humidity Wind Precip. Elev Updated Type
                   

Watches & Warnings

There are currently no watches in effect.